Time,TemperatureF,DewpointF,PressureIn,WindDirection,WindDirectionDegrees,WindSpeedMPH,WindSpeedGustMPH,Humidity,HourlyPrecipIn,Conditions,Clouds,dailyrainin,SoftwareType,DateUTC
2013-03-30 07:25:00,34.7,31.8,30.24,SSE,148,0.0,0.0,89,0.00,,,0.00,Wunderground v.1.15,2013-03-30 12:25:00,
2013-03-30 07:30:00,35.2,32.3,30.24,SE,136,0.0,0.0,89,0.00,,,0.00,Wunderground v.1.15,2013-03-30 12:30:00,
2013-03-30 07:35:00,35.7,32.5,30.24,ESE,107,0.0,0.0,88,0.00,,,0.00,Wunderground v.1.15,2013-03-30 12:35:00,
2013-03-30 07:40:00,36.3,33.1,30.24,SE,137,0.0,0.0,88,0.00,,,0.00,Wunderground v.1.15,2013-03-30 12:40:00,
2013-03-30 07:50:00,37.7,33.9,30.24,SE,138,0.0,0.0,86,0.00,,,0.00,Wunderground v.1.15,2013-03-30 12:50:00,
2013-03-30 07:55:00,38.9,34.8,30.23,SE,136,0.0,0.0,85,0.00,,,0.00,Wunderground v.1.15,2013-03-30 12:55:00,
2013-03-30 08:00:00,39.8,35.1,30.24,SW,224,1.0,3.0,83,0.00,,,0.00,Wunderground v.1.15,2013-03-30 13:00:00,
2013-03-30 08:10:00,41.0,35.6,30.23,East,89,2.0,2.0,81,0.00,,,0.00,Wunderground v.1.15,2013-03-30 13:10:00,
2013-03-30 08:20:00,41.9,35.5,30.23,SE,132,2.0,3.0,78,0.00,,,0.00,Wunderground v.1.15,2013-03-30 13:20:00,
2013-03-30 08:30:00,42.9,36.2,30.23,SE,146,2.0,4.0,77,0.00,,,0.00,Wunderground v.1.15,2013-03-30 13:30:00,
2013-03-30 08:40:00,43.8,36.4,30.22,SSE,158,4.0,4.0,75,0.00,,,0.00,Wunderground v.1.15,2013-03-30 13:40:00,
2013-03-30 08:50:00,44.6,36.5,30.22,SSE,164,4.0,10.0,73,0.00,,,0.00,Wunderground v.1.15,2013-03-30 13:50:00,
2013-03-30 09:00:00,45.6,37.1,30.22,SSE,160,5.0,5.0,72,0.00,,,0.00,Wunderground v.1.15,2013-03-30 14:00:00,
2013-03-30 09:10:00,46.7,37.1,30.22,SSW,209,4.0,6.0,69,0.00,,,0.00,Wunderground v.1.15,2013-03-30 14:10:00,
2013-03-30 09:20:00,47.4,37.0,30.21,SSE,166,5.0,5.0,67,0.00,,,0.00,Wunderground v.1.15,2013-03-30 14:20:00,
2013-03-30 09:25:00,47.7,37.7,30.21,South,191,5.0,5.0,68,0.00,,,0.00,Wunderground v.1.15,2013-03-30 14:25:00,
2013-03-30 09:30:00,48.2,38.5,30.21,SSE,160,4.0,4.0,69,0.00,,,0.00,Wunderground v.1.15,2013-03-30 14:30:00,
2013-03-30 09:40:00,48.7,38.2,30.22,South,174,5.0,5.0,67,0.00,,,0.00,Wunderground v.1.15,2013-03-30 14:40:00,
2013-03-30 14:25:00,56.7,40.7,30.09,South,169,10.0,12.0,55,0.00,,,0.00,Wunderground v.1.15,2013-03-30 19:25:00,
2013-03-30 14:35:00,56.7,42.1,30.09,SE,126,9.0,10.0,58,0.00,,,0.00,Wunderground v.1.15,2013-03-30 19:35:00,
2013-03-30 14:40:00,56.2,42.1,30.09,SSE,165,10.0,13.0,59,0.00,,,0.00,Wunderground v.1.15,2013-03-30 19:40:00,
2013-03-30 14:50:00,56.5,43.6,30.08,SW,218,8.0,11.0,62,0.00,,,0.00,Wunderground v.1.15,2013-03-30 19:50:00,
2013-03-30 14:55:00,56.5,43.2,30.08,SW,218,8.0,11.0,61,0.00,,,0.00,Wunderground v.1.15,2013-03-30 19:55:00,
2013-03-30 15:00:00,56.5,43.2,30.08,SSW,212,7.0,13.0,61,0.00,,,0.00,Wunderground v.1.15,2013-03-30 20:00:00,
2013-03-30 15:10:00,56.2,42.9,30.09,SSW,203,8.0,8.0,61,0.00,,,0.00,Wunderground v.1.15,2013-03-30 20:10:00,
2013-03-30 15:15:00,55.9,42.2,30.08,SSW,212,8.0,8.0,60,0.00,,,0.00,Wunderground v.1.15,2013-03-30 20:15:00,
2013-03-30 15:25:00,55.8,40.8,30.08,SW,218,9.0,9.0,57,0.00,,,0.00,Wunderground v.1.15,2013-03-30 20:25:00,
2013-03-30 15:30:00,55.7,41.1,30.08,SSW,212,9.0,9.0,58,0.00,,,0.00,Wunderground v.1.15,2013-03-30 20:30:00,
2013-03-30 15:40:00,56.1,40.1,30.08,South,186,9.0,9.0,55,0.00,,,0.00,Wunderground v.1.15,2013-03-30 20:40:00,
2013-03-30 15:50:00,56.1,41.5,30.08,SSE,160,8.0,13.0,58,0.00,,,0.00,Wunderground v.1.15,2013-03-30 20:50:00,
2013-03-30 16:00:00,56.1,42.0,30.07,SSE,162,7.0,10.0,59,0.00,,,0.00,Wunderground v.1.15,2013-03-30 21:00:00,
2013-03-30 16:10:00,55.7,40.7,30.07,South,174,7.0,12.0,57,0.00,,,0.00,Wunderground v.1.15,2013-03-30 21:10:00,
2013-03-30 16:20:00,55.7,39.8,30.07,SW,215,8.0,13.0,55,0.00,,,0.00,Wunderground v.1.15,2013-03-30 21:20:00,
2013-03-30 16:25:00,55.8,41.2,30.06,SSW,207,7.0,13.0,58,0.00,,,0.00,Wunderground v.1.15,2013-03-30 21:25:00,
2013-03-30 16:30:00,55.7,41.1,30.06,SSW,210,6.0,6.0,58,0.00,,,0.00,Wunderground v.1.15,2013-03-30 21:30:00,
2013-03-30 16:40:00,55.6,41.9,30.05,SSW,213,6.0,6.0,60,0.00,,,0.00,Wunderground v.1.15,2013-03-30 21:40:00,
2013-03-30 16:50:00,55.0,41.4,30.05,South,177,5.0,5.0,60,0.00,,,0.00,Wunderground v.1.15,2013-03-30 21:50:00,
2013-03-30 17:00:00,54.8,41.6,30.05,SSW,207,6.0,6.0,61,0.00,,,0.00,Wunderground v.1.15,2013-03-30 22:00:00,
2013-03-30 17:10:00,54.4,40.4,30.04,South,190,6.0,10.0,59,0.00,,,0.00,Wunderground v.1.15,2013-03-30 22:10:00,
2013-03-30 17:15:00,54.2,40.2,30.04,South,179,7.0,10.0,59,0.00,,,0.00,Wunderground v.1.15,2013-03-30 22:15:00,
2013-03-30 17:25:00,53.9,39.9,30.03,SSW,197,7.0,10.0,59,0.00,,,0.00,Wunderground v.1.15,2013-03-30 22:25:00,
2013-03-30 17:35:00,53.6,40.0,30.03,SSW,194,6.0,8.0,60,0.00,,,0.00,Wunderground v.1.15,2013-03-30 22:35:00,
2013-03-30 17:45:00,53.4,40.3,30.03,SSW,199,5.0,6.0,61,0.00,,,0.00,Wunderground v.1.15,2013-03-30 22:45:00,
2013-03-30 17:55:00,53.2,40.5,30.02,SSE,148,5.0,5.0,62,0.00,,,0.00,Wunderground v.1.15,2013-03-30 22:55:00,
2013-03-30 18:00:00,53.0,41.1,30.01,South,179,4.0,4.0,64,0.00,,,0.00,Wunderground v.1.15,2013-03-30 23:00:00,
2013-03-30 18:10:00,52.7,40.9,30.02,SE,142,5.0,6.0,64,0.00,,,0.00,Wunderground v.1.15,2013-03-30 23:10:00,
2013-03-30 18:20:00,52.6,41.6,30.02,SSW,198,4.0,4.0,66,0.00,,,0.00,Wunderground v.1.15,2013-03-30 23:20:00,
2013-03-30 18:30:00,52.4,41.4,30.02,South,190,3.0,3.0,66,0.00,,,0.00,Wunderground v.1.15,2013-03-30 23:30:00,
2013-03-30 18:40:00,52.2,42.0,30.01,South,179,2.0,3.0,68,0.00,,,0.00,Wunderground v.1.15,2013-03-30 23:40:00,
2013-03-30 18:50:00,52.0,41.8,30.02,SSW,210,2.0,2.0,68,0.00,,,0.00,Wunderground v.1.15,2013-03-30 23:50:00,
2013-03-30 18:55:00,51.9,42.0,30.01,South,191,2.0,2.0,69,0.00,,,0.00,Wunderground v.1.15,2013-03-30 23:55:00,
2013-03-30 19:05:00,51.7,41.9,30.01,SSW,195,3.0,3.0,69,0.00,,,0.00,Wunderground v.1.15,2013-03-31 00:05:00,
2013-03-30 19:15:00,51.6,41.8,30.01,SSW,204,3.0,3.0,69,0.00,,,0.00,Wunderground v.1.15,2013-03-31 00:15:00,
2013-03-30 19:20:00,51.5,41.7,30.01,SSW,210,3.0,3.0,69,0.00,,,0.00,Wunderground v.1.15,2013-03-31 00:20:00,
2013-03-30 19:30:00,51.3,41.8,30.00,SSW,197,3.0,4.0,70,0.00,,,0.00,Wunderground v.1.15,2013-03-31 00:30:00,
2013-03-30 19:40:00,51.0,41.9,30.00,South,177,3.0,3.0,71,0.00,,,0.00,Wunderground v.1.15,2013-03-31 00:40:00,
2013-03-30 19:45:00,50.8,42.1,30.00,SSW,193,2.0,3.0,72,0.00,,,0.00,Wunderground v.1.15,2013-03-31 00:45:00,
2013-03-30 19:55:00,50.4,42.1,30.00,South,184,2.0,2.0,73,0.00,,,0.00,Wunderground v.1.15,2013-03-31 00:55:00,
2013-03-30 20:00:00,50.4,42.1,30.00,SSW,207,2.0,2.0,73,0.00,,,0.00,Wunderground v.1.15,2013-03-31 01:00:00,
2013-03-30 20:10:00,50.5,42.2,30.00,SSW,203,2.0,2.0,73,0.00,,,0.00,Wunderground v.1.15,2013-03-31 01:10:00,
2013-03-30 20:15:00,50.5,42.2,30.00,SSW,207,3.0,3.0,73,0.00,,,0.00,Wunderground v.1.15,2013-03-31 01:15:00,
2013-03-30 20:25:00,50.6,42.3,30.00,SW,231,3.0,5.0,73,0.00,,,0.00,Wunderground v.1.15,2013-03-31 01:25:00,
2013-03-30 20:30:00,50.6,42.6,30.01,SSW,210,4.0,4.0,74,0.00,,,0.00,Wunderground v.1.15,2013-03-31 01:30:00,
2013-03-30 20:40:00,50.5,42.5,30.00,SSW,200,4.0,4.0,74,0.00,,,0.00,Wunderground v.1.15,2013-03-31 01:40:00,
2013-03-30 20:50:00,50.5,42.9,30.00,SSW,194,5.0,5.0,75,0.00,,,0.00,Wunderground v.1.15,2013-03-31 01:50:00,
2013-03-30 21:00:00,50.4,43.1,30.00,SW,218,4.0,4.0,76,0.00,,,0.00,Wunderground v.1.15,2013-03-31 02:00:00,
2013-03-30 21:10:00,50.4,43.1,30.01,SW,215,3.0,3.0,76,0.00,,,0.00,Wunderground v.1.15,2013-03-31 02:10:00,